FPO7AD LFPG-LEMD
Flight info
| Callsign | FPO7AD |
|---|---|
| Flight time | 1h 40m |
| Altitude | 33000 |
| Route | AGOPA DCT ARKIP DCT ARNAV DCT LMG DCT UVELI DCT OSMOB DCT ARVID DCT PPN DCT NOLSA DCT ALEPO DCT VASUM DCT BANEV |
| Aircraft | B738/M-SDE2E3FGHIRWXY/LB1 |
Departure
| Time | 2026-04-30 04:55 |
|---|---|
| Airport | Charles de Gaulle International Airport (LFPG) |
Arrival
| Time | 2026-04-30 06:35 |
|---|---|
| Airport | Adolfo Suárez Madrid–Barajas Airport (LEMD) |
| Time | Latitude | Longitude | Altitude | Speed | Heading |
|---|---|---|---|---|---|
| 2026-04-30 04:14 | 49.01323 | 2.50223 | 349 ft | 0 kts | 175° |
| 2026-04-30 04:17 | 49.01508 | 2.50321 | 358 ft | 0 kts | 355° |
| 2026-04-30 04:51 | 49.01510 | 2.50321 | 349 ft | 1 kts | 355° |
| 2026-04-30 04:51 | 49.01524 | 2.50341 | 354 ft | 6 kts | 62° |
| 2026-04-30 04:52 | 49.01571 | 2.50434 | 352 ft | 18 kts | 34° |
| 2026-04-30 04:52 | 49.01619 | 2.50608 | 352 ft | 20 kts | 84° |
| 2026-04-30 04:52 | 49.01631 | 2.50844 | 353 ft | 23 kts | 86° |
| 2026-04-30 04:52 | 49.01643 | 2.51079 | 357 ft | 22 kts | 85° |
| 2026-04-30 04:53 | 49.01650 | 2.51223 | 349 ft | 0 kts | 86° |
| 2026-04-30 04:53 | 49.01650 | 2.51226 | 349 ft | 3 kts | 86° |
| 2026-04-30 04:53 | 49.01697 | 2.51292 | 350 ft | 17 kts | 356° |
| 2026-04-30 04:53 | 49.01857 | 2.51261 | 354 ft | 24 kts | 358° |
| 2026-04-30 04:54 | 49.02014 | 2.51307 | 357 ft | 23 kts | 39° |
| 2026-04-30 04:54 | 49.02073 | 2.51536 | 353 ft | 34 kts | 85° |
| 2026-04-30 04:54 | 49.02111 | 2.52283 | 353 ft | 106 kts | 85° |
| 2026-04-30 04:54 | 49.02193 | 2.53718 | 384 ft | 162 kts | 85° |
| 2026-04-30 04:55 | 49.02288 | 2.55477 | 1076 ft | 172 kts | 85° |
| 2026-04-30 04:55 | 49.02379 | 2.57370 | 1813 ft | 182 kts | 87° |
| 2026-04-30 04:55 | 49.02486 | 2.59331 | 2412 ft | 191 kts | 87° |
| 2026-04-30 04:55 | 49.02597 | 2.61398 | 3018 ft | 200 kts | 87° |
| 2026-04-30 04:56 | 49.02711 | 2.63545 | 3794 ft | 204 kts | 86° |
| 2026-04-30 04:56 | 49.02827 | 2.65676 | 4753 ft | 201 kts | 85° |
| 2026-04-30 04:56 | 49.02938 | 2.67774 | 5587 ft | 203 kts | 85° |
| 2026-04-30 04:56 | 49.03052 | 2.69957 | 6407 ft | 205 kts | 85° |
| 2026-04-30 04:57 | 49.03167 | 2.72141 | 7194 ft | 208 kts | 85° |
| 2026-04-30 04:57 | 49.03280 | 2.74333 | 7908 ft | 214 kts | 86° |
| 2026-04-30 04:57 | 49.03403 | 2.76709 | 8248 ft | 239 kts | 86° |
| 2026-04-30 04:57 | 49.03539 | 2.79360 | 8678 ft | 259 kts | 86° |
| 2026-04-30 04:58 | 49.03682 | 2.82133 | 9441 ft | 265 kts | 86° |
| 2026-04-30 04:58 | 49.03828 | 2.84960 | 10268 ft | 270 kts | 86° |
| 2026-04-30 04:58 | 49.03974 | 2.87835 | 11030 ft | 274 kts | 87° |
| 2026-04-30 04:58 | 49.04123 | 2.90784 | 11539 ft | 290 kts | 86° |
| 2026-04-30 04:59 | 49.04160 | 2.93974 | 11809 ft | 310 kts | 99° |
| 2026-04-30 04:59 | 49.03404 | 2.97073 | 12476 ft | 318 kts | 122° |
| 2026-04-30 04:59 | 49.01865 | 2.99504 | 13231 ft | 325 kts | 145° |
| 2026-04-30 04:59 | 48.99742 | 3.00758 | 14007 ft | 335 kts | 169° |
| 2026-04-30 05:00 | 48.97400 | 3.00967 | 14720 ft | 339 kts | 176° |
| 2026-04-30 05:00 | 48.95034 | 3.01020 | 15442 ft | 342 kts | 177° |
| 2026-04-30 05:00 | 48.92653 | 3.00819 | 16150 ft | 348 kts | 191° |
| 2026-04-30 05:00 | 48.90411 | 2.99377 | 16893 ft | 353 kts | 212° |
| 2026-04-30 05:01 | 48.88614 | 2.96815 | 17690 ft | 358 kts | 231° |
| 2026-04-30 05:01 | 48.87448 | 2.93485 | 18484 ft | 362 kts | 251° |
| 2026-04-30 05:01 | 48.86897 | 2.89733 | 19121 ft | 366 kts | 258° |
| 2026-04-30 05:01 | 48.86494 | 2.85906 | 19731 ft | 368 kts | 259° |
| 2026-04-30 05:02 | 48.86116 | 2.82070 | 20385 ft | 368 kts | 260° |
| 2026-04-30 05:02 | 48.85725 | 2.78228 | 21089 ft | 369 kts | 259° |
| 2026-04-30 05:02 | 48.85310 | 2.74354 | 21546 ft | 375 kts | 259° |
| 2026-04-30 05:02 | 48.84874 | 2.70449 | 22230 ft | 375 kts | 259° |
| 2026-04-30 05:03 | 48.84430 | 2.66536 | 22826 ft | 378 kts | 259° |
| 2026-04-30 05:03 | 48.83851 | 2.62626 | 23281 ft | 382 kts | 248° |
| 2026-04-30 05:03 | 48.82584 | 2.59111 | 23898 ft | 381 kts | 235° |
| 2026-04-30 05:03 | 48.81044 | 2.55839 | 24419 ft | 381 kts | 233° |
| 2026-04-30 05:04 | 48.79473 | 2.52611 | 24952 ft | 381 kts | 233° |
| 2026-04-30 05:04 | 48.77908 | 2.49369 | 25479 ft | 381 kts | 234° |
| 2026-04-30 05:04 | 48.76358 | 2.46102 | 26021 ft | 381 kts | 234° |
| 2026-04-30 05:04 | 48.74822 | 2.42837 | 26546 ft | 381 kts | 234° |
| 2026-04-30 05:05 | 48.73219 | 2.39643 | 27023 ft | 382 kts | 227° |
| 2026-04-30 05:05 | 48.71144 | 2.37118 | 27458 ft | 386 kts | 214° |
| 2026-04-30 05:05 | 48.68842 | 2.35026 | 27944 ft | 386 kts | 213° |
| 2026-04-30 05:06 | 48.64180 | 2.30955 | 28825 ft | 388 kts | 213° |
| 2026-04-30 05:06 | 48.61837 | 2.28889 | 29237 ft | 390 kts | 213° |
| 2026-04-30 05:06 | 48.59499 | 2.26807 | 29658 ft | 391 kts | 213° |
| 2026-04-30 05:06 | 48.57159 | 2.24711 | 30076 ft | 391 kts | 214° |
| 2026-04-30 05:07 | 48.54814 | 2.22606 | 30406 ft | 393 kts | 214° |
| 2026-04-30 05:07 | 48.52457 | 2.20494 | 30659 ft | 396 kts | 214° |
| 2026-04-30 05:07 | 48.50085 | 2.18374 | 30919 ft | 398 kts | 214° |
| 2026-04-30 05:07 | 48.47684 | 2.16256 | 31171 ft | 400 kts | 213° |
| 2026-04-30 05:08 | 48.45272 | 2.14144 | 31423 ft | 402 kts | 213° |
| 2026-04-30 05:08 | 48.42842 | 2.12019 | 31645 ft | 405 kts | 213° |
| 2026-04-30 05:08 | 48.40369 | 2.09857 | 31910 ft | 406 kts | 214° |
| 2026-04-30 05:08 | 48.37954 | 2.07744 | 32159 ft | 408 kts | 214° |
| 2026-04-30 05:09 | 48.35492 | 2.05591 | 32369 ft | 411 kts | 214° |
| 2026-04-30 05:09 | 48.33017 | 2.03429 | 32563 ft | 413 kts | 214° |
| 2026-04-30 05:09 | 48.30449 | 2.01426 | 32751 ft | 420 kts | 205° |
| 2026-04-30 05:09 | 48.27583 | 2.00373 | 32948 ft | 432 kts | 190° |
| 2026-04-30 05:10 | 48.24546 | 2.00295 | 33101 ft | 439 kts | 184° |
| 2026-04-30 05:10 | 48.21468 | 2.00446 | 33092 ft | 445 kts | 183° |
| 2026-04-30 05:10 | 48.15176 | 2.00784 | 33096 ft | 453 kts | 184° |
| 2026-04-30 05:11 | 48.08830 | 2.00991 | 33087 ft | 458 kts | 184° |
| 2026-04-30 05:11 | 48.02425 | 2.01287 | 33101 ft | 462 kts | 182° |
| 2026-04-30 05:12 | 47.95990 | 2.01693 | 33101 ft | 463 kts | 182° |
| 2026-04-30 05:12 | 47.89542 | 2.02088 | 33103 ft | 464 kts | 182° |
| 2026-04-30 05:13 | 47.83095 | 2.02463 | 33096 ft | 464 kts | 182° |
| 2026-04-30 05:13 | 47.76650 | 2.02834 | 33096 ft | 463 kts | 182° |
| 2026-04-30 05:14 | 47.70220 | 2.03203 | 33083 ft | 462 kts | 182° |
| 2026-04-30 05:14 | 47.63831 | 2.03089 | 33075 ft | 455 kts | 192° |
| 2026-04-30 05:15 | 47.57859 | 2.00607 | 33083 ft | 447 kts | 205° |
| 2026-04-30 05:15 | 47.52100 | 1.97165 | 33066 ft | 446 kts | 205° |
| 2026-04-30 05:16 | 47.46331 | 1.93761 | 33072 ft | 446 kts | 205° |
| 2026-04-30 05:16 | 47.40555 | 1.90412 | 33073 ft | 446 kts | 205° |
| 2026-04-30 05:17 | 47.34776 | 1.87084 | 33079 ft | 446 kts | 205° |
| 2026-04-30 05:17 | 47.29000 | 1.83763 | 33077 ft | 445 kts | 205° |
| 2026-04-30 05:18 | 47.23231 | 1.80451 | 33071 ft | 445 kts | 204° |
| 2026-04-30 05:18 | 47.17452 | 1.77157 | 33070 ft | 445 kts | 204° |
| 2026-04-30 05:19 | 47.11665 | 1.73903 | 33063 ft | 446 kts | 204° |
| 2026-04-30 05:19 | 47.05871 | 1.70656 | 33052 ft | 446 kts | 204° |
| 2026-04-30 05:20 | 47.01054 | 1.67958 | 33045 ft | 446 kts | 204° |
| 2026-04-30 05:20 | 46.94265 | 1.64153 | 32872 ft | 449 kts | 200° |
| 2026-04-30 05:21 | 46.89381 | 1.61427 | 33016 ft | 455 kts | 200° |
| 2026-04-30 05:21 | 46.83407 | 1.58108 | 33059 ft | 464 kts | 200° |
| 2026-04-30 05:22 | 46.77331 | 1.54736 | 33055 ft | 469 kts | 200° |
| 2026-04-30 05:22 | 46.70243 | 1.50808 | 33048 ft | 469 kts | 200° |
| 2026-04-30 05:23 | 46.65138 | 1.47986 | 33045 ft | 468 kts | 200° |
| 2026-04-30 05:23 | 46.59063 | 1.44635 | 33046 ft | 466 kts | 200° |
| 2026-04-30 05:24 | 46.53003 | 1.41300 | 33049 ft | 465 kts | 200° |
| 2026-04-30 05:24 | 46.46970 | 1.37989 | 33039 ft | 463 kts | 200° |
| 2026-04-30 05:25 | 46.40948 | 1.34691 | 33043 ft | 462 kts | 200° |
| 2026-04-30 05:25 | 46.34943 | 1.31411 | 33044 ft | 461 kts | 200° |
| 2026-04-30 05:26 | 46.28941 | 1.28140 | 33045 ft | 460 kts | 200° |
| 2026-04-30 05:26 | 46.22952 | 1.24883 | 33042 ft | 460 kts | 200° |
| 2026-04-30 05:27 | 46.16964 | 1.21635 | 33045 ft | 459 kts | 200° |
| 2026-04-30 05:27 | 46.10989 | 1.18401 | 33047 ft | 459 kts | 200° |
| 2026-04-30 05:28 | 46.05015 | 1.15175 | 33050 ft | 458 kts | 200° |
| 2026-04-30 05:28 | 45.99050 | 1.11961 | 33049 ft | 457 kts | 200° |
| 2026-04-30 05:29 | 45.93095 | 1.08760 | 33049 ft | 457 kts | 200° |
| 2026-04-30 05:29 | 45.87189 | 1.05592 | 33052 ft | 456 kts | 200° |
| 2026-04-30 05:30 | 45.81371 | 1.01990 | 33045 ft | 456 kts | 209° |
| 2026-04-30 05:30 | 45.76320 | 0.96481 | 33051 ft | 457 kts | 219° |
| 2026-04-30 05:31 | 45.71480 | 0.90569 | 33042 ft | 458 kts | 219° |
| 2026-04-30 05:31 | 45.66618 | 0.84690 | 33037 ft | 458 kts | 219° |
| 2026-04-30 05:32 | 45.61726 | 0.78846 | 33031 ft | 458 kts | 219° |
| 2026-04-30 05:32 | 45.56828 | 0.73025 | 33032 ft | 458 kts | 218° |
| 2026-04-30 05:33 | 45.51919 | 0.67209 | 33032 ft | 459 kts | 218° |
| 2026-04-30 05:33 | 45.47010 | 0.61402 | 33031 ft | 459 kts | 218° |
| 2026-04-30 05:34 | 45.42092 | 0.55597 | 33028 ft | 459 kts | 218° |
| 2026-04-30 05:34 | 45.37170 | 0.49802 | 33027 ft | 459 kts | 218° |
| 2026-04-30 05:35 | 45.32242 | 0.44012 | 33023 ft | 460 kts | 218° |
| 2026-04-30 05:35 | 45.27306 | 0.38227 | 33024 ft | 460 kts | 218° |
| 2026-04-30 05:36 | 45.22366 | 0.32450 | 33023 ft | 460 kts | 218° |
| 2026-04-30 05:36 | 45.17415 | 0.26673 | 33027 ft | 461 kts | 218° |
| 2026-04-30 05:37 | 45.12460 | 0.20906 | 33024 ft | 461 kts | 218° |
| 2026-04-30 05:37 | 45.07496 | 0.15138 | 33022 ft | 462 kts | 218° |
| 2026-04-30 05:38 | 45.02522 | 0.09376 | 33024 ft | 462 kts | 218° |
| 2026-04-30 05:38 | 44.97538 | 0.03619 | 33020 ft | 463 kts | 218° |
| 2026-04-30 05:39 | 44.92554 | -0.02129 | 33024 ft | 463 kts | 218° |
| 2026-04-30 05:39 | 44.87570 | -0.07865 | 33020 ft | 462 kts | 218° |
| 2026-04-30 05:40 | 44.82587 | -0.13588 | 33016 ft | 462 kts | 218° |
| 2026-04-30 05:40 | 44.77614 | -0.19287 | 33019 ft | 461 kts | 218° |
| 2026-04-30 05:41 | 44.72641 | -0.24973 | 33013 ft | 460 kts | 218° |
| 2026-04-30 05:41 | 44.67680 | -0.30633 | 33017 ft | 459 kts | 217° |
| 2026-04-30 05:42 | 44.62471 | -0.35770 | 33017 ft | 456 kts | 207° |
| 2026-04-30 05:42 | 44.56840 | -0.39868 | 33011 ft | 456 kts | 206° |
| 2026-04-30 05:43 | 44.51201 | -0.43919 | 33013 ft | 455 kts | 206° |
| 2026-04-30 05:43 | 44.45588 | -0.47996 | 33010 ft | 454 kts | 206° |
| 2026-04-30 05:44 | 44.40038 | -0.52053 | 33011 ft | 452 kts | 206° |
| 2026-04-30 05:44 | 44.34480 | -0.56116 | 33012 ft | 450 kts | 206° |
| 2026-04-30 05:45 | 44.28945 | -0.60152 | 32998 ft | 448 kts | 206° |
| 2026-04-30 05:45 | 44.23427 | -0.64166 | 33015 ft | 447 kts | 206° |
| 2026-04-30 05:46 | 44.17922 | -0.68162 | 33006 ft | 445 kts | 206° |
| 2026-04-30 05:46 | 44.12425 | -0.72142 | 33010 ft | 445 kts | 206° |
| 2026-04-30 05:47 | 44.06938 | -0.76108 | 33015 ft | 444 kts | 206° |
| 2026-04-30 05:47 | 44.01456 | -0.80062 | 33012 ft | 444 kts | 206° |
| 2026-04-30 05:48 | 43.95972 | -0.84009 | 33016 ft | 444 kts | 206° |
| 2026-04-30 05:48 | 43.90494 | -0.87943 | 33007 ft | 443 kts | 206° |
| 2026-04-30 05:49 | 43.85014 | -0.91870 | 33023 ft | 443 kts | 206° |
| 2026-04-30 05:49 | 43.79538 | -0.95787 | 33020 ft | 443 kts | 206° |
| 2026-04-30 05:50 | 43.74060 | -0.99696 | 33022 ft | 443 kts | 206° |
| 2026-04-30 05:50 | 43.68579 | -1.03600 | 33023 ft | 443 kts | 206° |
| 2026-04-30 05:51 | 43.63097 | -1.07496 | 33023 ft | 443 kts | 206° |
| 2026-04-30 05:51 | 43.57613 | -1.11386 | 33022 ft | 443 kts | 206° |
| 2026-04-30 05:52 | 43.52123 | -1.15272 | 33018 ft | 444 kts | 206° |
| 2026-04-30 05:52 | 43.46623 | -1.19157 | 33022 ft | 444 kts | 206° |
| 2026-04-30 05:53 | 43.41124 | -1.23034 | 33017 ft | 444 kts | 207° |
| 2026-04-30 05:53 | 43.35621 | -1.26905 | 33018 ft | 444 kts | 207° |
| 2026-04-30 05:54 | 43.30118 | -1.30769 | 33019 ft | 444 kts | 207° |
| 2026-04-30 05:54 | 43.24618 | -1.34622 | 33017 ft | 444 kts | 207° |
| 2026-04-30 05:55 | 43.19119 | -1.38468 | 33018 ft | 443 kts | 207° |
| 2026-04-30 05:55 | 43.13628 | -1.42301 | 33032 ft | 443 kts | 207° |
| 2026-04-30 05:56 | 43.08137 | -1.46125 | 33028 ft | 443 kts | 207° |
| 2026-04-30 05:56 | 43.02655 | -1.49939 | 33044 ft | 442 kts | 207° |
| 2026-04-30 05:57 | 42.97179 | -1.53747 | 33038 ft | 441 kts | 207° |
| 2026-04-30 05:57 | 42.91707 | -1.57545 | 33048 ft | 441 kts | 207° |
| 2026-04-30 05:58 | 42.86235 | -1.61335 | 33049 ft | 441 kts | 208° |
| 2026-04-30 05:58 | 42.80757 | -1.65123 | 33045 ft | 442 kts | 208° |
| 2026-04-30 05:59 | 42.75276 | -1.68905 | 33044 ft | 442 kts | 208° |
| 2026-04-30 05:59 | 42.69779 | -1.72658 | 33049 ft | 442 kts | 208° |
| 2026-04-30 06:00 | 42.64260 | -1.76353 | 33046 ft | 443 kts | 208° |
| 2026-04-30 06:00 | 42.58731 | -1.80051 | 33049 ft | 443 kts | 208° |
| 2026-04-30 06:01 | 42.53201 | -1.83752 | 33044 ft | 443 kts | 208° |
| 2026-04-30 06:01 | 42.47676 | -1.87446 | 33051 ft | 443 kts | 208° |
| 2026-04-30 06:02 | 42.42149 | -1.91132 | 33047 ft | 442 kts | 209° |
| 2026-04-30 06:02 | 42.36631 | -1.94811 | 33047 ft | 442 kts | 209° |
| 2026-04-30 06:03 | 42.31123 | -1.98482 | 33044 ft | 441 kts | 209° |
| 2026-04-30 06:03 | 42.26553 | -2.01528 | 33047 ft | 440 kts | 210° |
| 2026-04-30 06:04 | 42.20135 | -2.05784 | 33041 ft | 439 kts | 210° |
| 2026-04-30 06:05 | 42.11933 | -2.11206 | 33028 ft | 437 kts | 210° |
| 2026-04-30 06:05 | 42.07395 | -2.14202 | 33023 ft | 436 kts | 210° |
| 2026-04-30 06:06 | 42.01950 | -2.17790 | 33020 ft | 435 kts | 210° |
| 2026-04-30 06:06 | 41.96511 | -2.21368 | 33011 ft | 435 kts | 210° |
| 2026-04-30 06:07 | 41.91078 | -2.24936 | 33030 ft | 435 kts | 210° |
| 2026-04-30 06:07 | 41.85641 | -2.28500 | 33016 ft | 435 kts | 210° |
| 2026-04-30 06:08 | 41.80265 | -2.32014 | 33002 ft | 425 kts | 210° |
| 2026-04-30 06:08 | 41.75008 | -2.35441 | 33022 ft | 418 kts | 211° |
| 2026-04-30 06:09 | 41.69759 | -2.38868 | 32416 ft | 422 kts | 211° |
| 2026-04-30 06:09 | 41.67130 | -2.40580 | 31850 ft | 418 kts | 211° |
| 2026-04-30 06:09 | 41.64531 | -2.42268 | 31379 ft | 413 kts | 211° |
| 2026-04-30 06:09 | 41.61958 | -2.43938 | 30894 ft | 409 kts | 211° |
| 2026-04-30 06:10 | 41.59413 | -2.45590 | 30418 ft | 405 kts | 211° |
| 2026-04-30 06:10 | 41.57066 | -2.47113 | 29953 ft | 402 kts | 211° |
| 2026-04-30 06:10 | 41.55022 | -2.48439 | 29503 ft | 399 kts | 211° |
| 2026-04-30 06:10 | 41.52534 | -2.50050 | 29000 ft | 395 kts | 211° |
| 2026-04-30 06:11 | 41.50075 | -2.51640 | 28511 ft | 391 kts | 211° |
| 2026-04-30 06:11 | 41.47645 | -2.53202 | 28031 ft | 386 kts | 211° |
| 2026-04-30 06:11 | 41.45226 | -2.54751 | 27562 ft | 386 kts | 211° |
| 2026-04-30 06:11 | 41.42789 | -2.56312 | 27082 ft | 391 kts | 210° |
| 2026-04-30 06:12 | 41.40343 | -2.57876 | 26592 ft | 389 kts | 210° |
| 2026-04-30 06:12 | 41.37916 | -2.59426 | 26113 ft | 385 kts | 210° |
| 2026-04-30 06:12 | 41.35512 | -2.60960 | 25631 ft | 382 kts | 210° |
| 2026-04-30 06:12 | 41.33081 | -2.62364 | 25161 ft | 383 kts | 201° |
| 2026-04-30 06:13 | 41.30436 | -2.62900 | 24711 ft | 390 kts | 185° |
| 2026-04-30 06:13 | 41.27728 | -2.62738 | 24272 ft | 390 kts | 181° |
| 2026-04-30 06:13 | 41.25017 | -2.62461 | 23794 ft | 391 kts | 180° |
| 2026-04-30 06:13 | 41.22308 | -2.62163 | 23265 ft | 391 kts | 180° |
| 2026-04-30 06:14 | 41.19609 | -2.61878 | 22753 ft | 387 kts | 180° |
| 2026-04-30 06:14 | 41.16960 | -2.61615 | 22277 ft | 384 kts | 180° |
| 2026-04-30 06:14 | 41.14280 | -2.61363 | 21807 ft | 380 kts | 180° |
| 2026-04-30 06:14 | 41.11658 | -2.61125 | 21352 ft | 377 kts | 180° |
| 2026-04-30 06:15 | 41.09051 | -2.60892 | 20896 ft | 374 kts | 180° |
| 2026-04-30 06:15 | 41.06466 | -2.60663 | 20452 ft | 371 kts | 180° |
| 2026-04-30 06:15 | 41.03904 | -2.60437 | 20008 ft | 368 kts | 180° |
| 2026-04-30 06:15 | 41.01361 | -2.60211 | 19568 ft | 365 kts | 180° |
| 2026-04-30 06:16 | 40.98827 | -2.59986 | 19128 ft | 363 kts | 180° |
| 2026-04-30 06:16 | 40.96315 | -2.59764 | 18687 ft | 361 kts | 180° |
| 2026-04-30 06:16 | 40.93809 | -2.59542 | 18227 ft | 360 kts | 180° |
| 2026-04-30 06:16 | 40.91316 | -2.59321 | 17738 ft | 358 kts | 180° |
| 2026-04-30 06:17 | 40.88842 | -2.59102 | 17282 ft | 355 kts | 180° |
| 2026-04-30 06:17 | 40.86386 | -2.58884 | 16844 ft | 352 kts | 180° |
| 2026-04-30 06:17 | 40.83983 | -2.59097 | 16413 ft | 342 kts | 199° |
| 2026-04-30 06:17 | 40.81840 | -2.60304 | 16006 ft | 333 kts | 215° |
| 2026-04-30 06:18 | 40.80082 | -2.62237 | 15600 ft | 327 kts | 226° |
| 2026-04-30 06:18 | 40.78488 | -2.64359 | 15184 ft | 325 kts | 227° |
| 2026-04-30 06:18 | 40.76949 | -2.66473 | 15046 ft | 314 kts | 227° |
| 2026-04-30 06:18 | 40.75458 | -2.68515 | 14894 ft | 304 kts | 227° |
| 2026-04-30 06:19 | 40.74021 | -2.70465 | 14765 ft | 297 kts | 227° |
| 2026-04-30 06:19 | 40.72577 | -2.72410 | 14630 ft | 288 kts | 227° |
| 2026-04-30 06:19 | 40.71213 | -2.74237 | 14510 ft | 280 kts | 227° |
| 2026-04-30 06:19 | 40.69866 | -2.76035 | 14391 ft | 271 kts | 227° |
| 2026-04-30 06:20 | 40.68541 | -2.77799 | 14284 ft | 263 kts | 227° |
| 2026-04-30 06:20 | 40.67292 | -2.79461 | 14176 ft | 255 kts | 227° |
| 2026-04-30 06:20 | 40.66046 | -2.81115 | 14073 ft | 247 kts | 227° |
| 2026-04-30 06:20 | 40.64722 | -2.82540 | 13869 ft | 246 kts | 216° |
| 2026-04-30 06:21 | 40.63266 | -2.83735 | 13663 ft | 247 kts | 214° |
| 2026-04-30 06:21 | 40.61785 | -2.84892 | 13441 ft | 249 kts | 213° |
| 2026-04-30 06:21 | 40.60291 | -2.86059 | 13211 ft | 251 kts | 213° |
| 2026-04-30 06:21 | 40.58787 | -2.87243 | 12933 ft | 252 kts | 214° |
| 2026-04-30 06:22 | 40.57289 | -2.88430 | 12695 ft | 251 kts | 214° |
| 2026-04-30 06:22 | 40.55799 | -2.89617 | 12472 ft | 250 kts | 214° |
| 2026-04-30 06:22 | 40.54339 | -2.90784 | 12252 ft | 248 kts | 214° |
| 2026-04-30 06:22 | 40.52869 | -2.91961 | 12030 ft | 247 kts | 214° |
| 2026-04-30 06:23 | 40.51408 | -2.93133 | 11810 ft | 246 kts | 214° |
| 2026-04-30 06:23 | 40.49953 | -2.94301 | 11601 ft | 244 kts | 214° |
| 2026-04-30 06:23 | 40.48507 | -2.95462 | 11379 ft | 243 kts | 213° |
| 2026-04-30 06:23 | 40.47070 | -2.96615 | 11171 ft | 241 kts | 213° |
| 2026-04-30 06:24 | 40.45642 | -2.97761 | 10952 ft | 240 kts | 213° |
| 2026-04-30 06:24 | 40.44222 | -2.98899 | 10746 ft | 239 kts | 213° |
| 2026-04-30 06:24 | 40.42807 | -3.00033 | 10537 ft | 237 kts | 213° |
| 2026-04-30 06:24 | 40.41400 | -3.01160 | 10329 ft | 236 kts | 213° |
| 2026-04-30 06:25 | 40.39999 | -3.02282 | 10124 ft | 236 kts | 213° |
| 2026-04-30 06:25 | 40.38602 | -3.03399 | 9908 ft | 235 kts | 213° |
| 2026-04-30 06:25 | 40.37211 | -3.04512 | 9678 ft | 234 kts | 213° |
| 2026-04-30 06:25 | 40.35825 | -3.05620 | 9463 ft | 233 kts | 213° |
| 2026-04-30 06:26 | 40.34444 | -3.06725 | 9254 ft | 232 kts | 213° |
| 2026-04-30 06:26 | 40.33073 | -3.07821 | 9044 ft | 231 kts | 213° |
| 2026-04-30 06:26 | 40.31705 | -3.08913 | 8841 ft | 230 kts | 213° |
| 2026-04-30 06:26 | 40.30340 | -3.10002 | 8644 ft | 229 kts | 213° |
| 2026-04-30 06:27 | 40.28979 | -3.11087 | 8440 ft | 229 kts | 213° |
| 2026-04-30 06:27 | 40.27619 | -3.12178 | 8236 ft | 229 kts | 216° |
| 2026-04-30 06:27 | 40.26560 | -3.13706 | 8029 ft | 229 kts | 243° |
| 2026-04-30 06:27 | 40.26158 | -3.15713 | 7838 ft | 231 kts | 266° |
| 2026-04-30 06:28 | 40.26307 | -3.17820 | 7645 ft | 234 kts | 277° |
| 2026-04-30 06:28 | 40.26597 | -3.19934 | 7428 ft | 237 kts | 278° |
| 2026-04-30 06:28 | 40.26897 | -3.22058 | 7228 ft | 238 kts | 278° |
| 2026-04-30 06:28 | 40.27200 | -3.24207 | 7015 ft | 240 kts | 278° |
| 2026-04-30 06:29 | 40.27494 | -3.26363 | 6787 ft | 242 kts | 278° |
| 2026-04-30 06:29 | 40.27783 | -3.28524 | 6586 ft | 240 kts | 278° |
| 2026-04-30 06:29 | 40.28067 | -3.30672 | 6356 ft | 239 kts | 278° |
| 2026-04-30 06:29 | 40.28503 | -3.32753 | 6117 ft | 238 kts | 297° |
| 2026-04-30 06:30 | 40.29502 | -3.34462 | 5933 ft | 235 kts | 309° |
| 2026-04-30 06:30 | 40.30551 | -3.36056 | 5726 ft | 232 kts | 309° |
| 2026-04-30 06:30 | 40.31656 | -3.37581 | 5538 ft | 224 kts | 317° |
| 2026-04-30 06:30 | 40.32831 | -3.38825 | 5364 ft | 215 kts | 320° |
| 2026-04-30 06:31 | 40.33974 | -3.39973 | 5215 ft | 201 kts | 320° |
| 2026-04-30 06:31 | 40.35044 | -3.41055 | 4985 ft | 188 kts | 320° |
| 2026-04-30 06:31 | 40.36041 | -3.42071 | 4730 ft | 177 kts | 320° |
| 2026-04-30 06:31 | 40.37008 | -3.43059 | 4497 ft | 172 kts | 320° |
| 2026-04-30 06:32 | 40.37950 | -3.44023 | 4281 ft | 172 kts | 320° |
| 2026-04-30 06:32 | 40.38881 | -3.44973 | 4084 ft | 168 kts | 320° |
| 2026-04-30 06:32 | 40.39784 | -3.45893 | 3834 ft | 161 kts | 320° |
| 2026-04-30 06:32 | 40.40658 | -3.46785 | 3618 ft | 158 kts | 320° |
| 2026-04-30 06:33 | 40.41525 | -3.47671 | 3413 ft | 158 kts | 320° |
| 2026-04-30 06:33 | 40.42396 | -3.48560 | 3198 ft | 158 kts | 321° |
| 2026-04-30 06:33 | 40.43265 | -3.49446 | 2967 ft | 158 kts | 321° |
| 2026-04-30 06:33 | 40.44136 | -3.50335 | 2752 ft | 158 kts | 321° |
| 2026-04-30 06:34 | 40.45004 | -3.51200 | 2549 ft | 156 kts | 322° |
| 2026-04-30 06:34 | 40.45865 | -3.52100 | 2308 ft | 159 kts | 321° |
| 2026-04-30 06:34 | 40.46733 | -3.52985 | 2122 ft | 158 kts | 322° |
| 2026-04-30 06:34 | 40.47598 | -3.53861 | 1946 ft | 155 kts | 322° |
| 2026-04-30 06:35 | 40.48388 | -3.54666 | 1936 ft | 127 kts | 322° |
| 2026-04-30 06:35 | 40.48965 | -3.55257 | 1951 ft | 83 kts | 322° |
| 2026-04-30 06:35 | 40.49297 | -3.55595 | 1960 ft | 33 kts | 322° |
| 2026-04-30 06:35 | 40.49407 | -3.55804 | 1962 ft | 26 kts | 272° |
| 2026-04-30 06:36 | 40.49405 | -3.56029 | 1959 ft | 23 kts | 274° |
| 2026-04-30 06:36 | 40.49405 | -3.56200 | 1959 ft | 18 kts | 245° |
| 2026-04-30 06:36 | 40.49286 | -3.56246 | 1961 ft | 21 kts | 181° |
| 2026-04-30 06:36 | 40.49131 | -3.56249 | 1961 ft | 22 kts | 180° |
| 2026-04-30 06:37 | 40.48979 | -3.56249 | 1961 ft | 22 kts | 180° |
| 2026-04-30 06:37 | 40.48831 | -3.56253 | 1961 ft | 21 kts | 181° |
| 2026-04-30 06:37 | 40.48768 | -3.56373 | 1964 ft | 18 kts | 269° |
| 2026-04-30 06:37 | 40.48768 | -3.56563 | 1971 ft | 21 kts | 271° |
| 2026-04-30 06:38 | 40.48769 | -3.56752 | 1975 ft | 20 kts | 270° |
| 2026-04-30 06:38 | 40.48769 | -3.56903 | 1980 ft | 0 kts | 271° |
| 2026-04-30 06:39 | 40.48769 | -3.56915 | 1979 ft | 4 kts | 272° |
| 2026-04-30 06:39 | 40.48771 | -3.56985 | 1980 ft | 11 kts | 269° |
| 2026-04-30 06:39 | 40.48767 | -3.57112 | 1983 ft | 17 kts | 266° |
| 2026-04-30 06:40 | 40.48761 | -3.57236 | 1983 ft | 9 kts | 267° |
| 2026-04-30 06:40 | 40.48760 | -3.57271 | 1984 ft | 0 kts | 268° |
| 2026-04-30 06:40 | 40.48760 | -3.57291 | 1984 ft | 5 kts | 268° |
| 2026-04-30 06:40 | 40.48762 | -3.57408 | 1987 ft | 19 kts | 272° |
| 2026-04-30 06:41 | 40.48766 | -3.57613 | 1990 ft | 26 kts | 268° |
| 2026-04-30 06:41 | 40.48762 | -3.57848 | 1995 ft | 21 kts | 266° |
| 2026-04-30 06:41 | 40.48617 | -3.57914 | 1998 ft | 24 kts | 168° |
| 2026-04-30 06:41 | 40.48457 | -3.57815 | 1991 ft | 27 kts | 147° |
| 2026-04-30 06:42 | 40.48305 | -3.57690 | 1994 ft | 25 kts | 147° |
| 2026-04-30 06:42 | 40.48165 | -3.57554 | 1998 ft | 26 kts | 139° |
| 2026-04-30 06:42 | 40.48028 | -3.57404 | 2002 ft | 25 kts | 144° |
| 2026-04-30 06:42 | 40.47896 | -3.57272 | 2002 ft | 23 kts | 141° |
| 2026-04-30 06:43 | 40.47772 | -3.57142 | 1998 ft | 22 kts | 142° |
| 2026-04-30 06:43 | 40.47649 | -3.57020 | 1995 ft | 23 kts | 143° |
| 2026-04-30 06:43 | 40.47517 | -3.56890 | 1991 ft | 25 kts | 143° |
| 2026-04-30 06:43 | 40.47376 | -3.56744 | 1987 ft | 27 kts | 140° |
| 2026-04-30 06:44 | 40.47228 | -3.56582 | 1981 ft | 29 kts | 143° |
| 2026-04-30 06:44 | 40.47066 | -3.56467 | 1979 ft | 25 kts | 164° |
| 2026-04-30 06:44 | 40.46895 | -3.56456 | 1976 ft | 24 kts | 181° |
| 2026-04-30 06:44 | 40.46735 | -3.56459 | 1973 ft | 23 kts | 182° |
| 2026-04-30 06:45 | 40.46580 | -3.56478 | 1972 ft | 22 kts | 182° |
| 2026-04-30 06:45 | 40.46481 | -3.56485 | 1973 ft | 0 kts | 184° |
| 2026-04-30 06:45 | 40.46480 | -3.56485 | 1972 ft | 1 kts | 184° |
| 2026-04-30 06:45 | 40.46453 | -3.56488 | 1971 ft | 7 kts | 185° |
| 2026-04-30 06:46 | 40.46401 | -3.56496 | 1976 ft | 8 kts | 189° |
| 2026-04-30 06:46 | 40.46352 | -3.56510 | 1970 ft | 7 kts | 195° |
| 2026-04-30 06:46 | 40.46301 | -3.56514 | 1974 ft | 10 kts | 175° |
| 2026-04-30 06:46 | 40.46211 | -3.56506 | 1971 ft | 14 kts | 177° |
| 2026-04-30 06:47 | 40.46114 | -3.56503 | 1970 ft | 14 kts | 188° |
| 2026-04-30 06:47 | 40.46050 | -3.56587 | 1971 ft | 13 kts | 244° |
| 2026-04-30 06:47 | 40.46028 | -3.56707 | 1976 ft | 12 kts | 261° |
| 2026-04-30 06:47 | 40.45958 | -3.56750 | 1970 ft | 10 kts | 182° |
| 2026-04-30 06:48 | 40.45885 | -3.56752 | 1974 ft | 8 kts | 181° |
| 2026-04-30 06:48 | 40.45838 | -3.56768 | 1975 ft | 8 kts | 211° |
| 2026-04-30 06:48 | 40.45792 | -3.56804 | 1972 ft | 6 kts | 186° |
| 2026-04-30 06:48 | 40.45764 | -3.56772 | 1972 ft | 6 kts | 114° |
| 2026-04-30 06:49 | 40.45754 | -3.56750 | 1973 ft | 3 kts | 127° |
| 2026-04-30 06:49 | 40.45749 | -3.56744 | 1975 ft | 0 kts | 130° |